Aérodrome :
LOGIN :

S'inscrire | Disclaimer

   EN    FR    IT 

 










Légende :    VFR   VFR Marginal   IFR   IFR Intensif   IFR Très Intensif
Visi : 
Plafond : 
>= 8 km
>= 3000ft
5 à 8 km
1000 à 3000 ft
1500m à 5 km
500 à 1000 ft
800 à 1500m
200 à 500 ft
< 800m
< 200 ft
Symboles :   Orages  Brouillard  Fortes neiges  Fortes précipitations  Vent > 20 kt
SIGMETs :   Divers  Orages  Givrage  Turbulence  Onde Orograph.  Cendres Volcan.







- Altitude de l'aérodrome : 325 ft
- Code IATA : BES
- Voir les cartes d'approche


LFRB - Brest

DERNIER METAR :
  • 171700Z AUTO 23011KT 200V260 9999 SCT012 SCT019 OVC049 19/17 Q1015 TEMPO 2000 RA BKN008

METARs EXPIRÉS :
  • 171630Z AUTO 24013KT 9999 BKN013 BKN026 OVC054 19/17 Q1016 TEMPO 2000 RA BECMG BKN016
  • 171600Z AUTO 24014KT 9999 BKN013 BKN018 OVC052 19/17 Q1016 TEMPO 2000 RA BKN008
  • 171530Z AUTO 23012KT 9999 BKN011 BKN019 OVC050 19/17 Q1016 TEMPO 2000 RA BKN008
  • 171500Z AUTO 23011KT 9999 BKN013 OVC052 20/17 Q1016 TEMPO 2000 RA BKN008
  • 171430Z AUTO 22013KT 9999 SCT015 SCT022 OVC056 20/17 Q1016 TEMPO 2000 RA BKN008

TAF TAF LFRB
Valide du 17 à 12h jusqu'au 18 à 18h UTC


171100Z 1712/1818 20012KT 9999 BKN016
PROB30
TEMPO 1712/1718 2000 RA BKN008
BECMG 1804/1806 28012KT
ATIS : +33 2 98 32 02 71
Pas de NOTAMs connus pour ce terrain.



MET'MAP, la Météo Aéronautique d'un coup d'oeil ! - Copyright ORBIFLY Décembre 2007 - Disclaimer

ORBIFLY MET'MAP TEAM :

Programmation & Développement : Alexandra Zaïnal
Conception & Développement : Baudouin d'Aumeries
Co-Programmation & Développement : Marc-Olivier Méhu
Soutien technique & logistique : Manuel Goepfert

Contact : metmap@orbifly.com




SOURCES & CREDITS :

   NOAA